Terminal Aerodrome Forecast
Issued by NWS

Home | Current Version | Previous Version | Text Only | Print | Product List | Glossary On
Versions: 1 2 3 4 5 6 7 8 9 10 11 12 13 14 15 16 17 18 19 20 21
000
FTUS42 KMLB 270940 AAB
TAFLEE
TAF AMD
KLEE 270940Z 2710/2806 28008KT 6SM -RA BR SCT022 BKN080 OVC110
      TEMPO 2710/2713 4SM -RA BR BKN022
     FM271500 32010KT P6SM VCSH SCT025 BKN080
     FM280100 VRB04KT P6SM SCT025 BKN200=

USA.gov is the U.S. government's official web portal to all federal, state and local government web resources and services.